^^
Station Historical Data
Daily Summary for Nil La, TWC- Units:  Both    English   Metric
« Previous Day
Next Day »
Daily Weekly Monthly Yearly Custom
  High: Low: Average:
Temperature: TemperatureF °F /  -17.8 °C 61.2 °F /  16.2 °C 79.2 °F /  26.2 °C
Dew Point: DewpointF °F /  -17.8 °C 31.5 °F /  -0.3 °C 39.5 °F /  4.2 °C
Humidity: Humidity% 14% 25%
Wind Speed: WindSpeedMPHmph /  0km/h - 1.7mph /  2.7km/h
Wind Gust: WindSpeedGustMPHmph /  0km/h - -
Wind- - SSE
Pressure: PressureIn in /  0 hPa 29.59 in /  1001.9 hPa -
Precipitation: 0.00 in /  0 mm    
Historical Graphs
 
 
Tabular Data for Nil La, TWC-
Time Temperature Dew Point Pressure Wind Wind Speed Wind Gust Humidity Rainfall Rate (Hourly) solar Conditions
TemperatureF °F /  -17.8 °C DewpointF °F /  -17.8 °C PressureInin /  0hPa Calm     Humidity% HourlyPrecipInin /  0mm SolarRadiationWatts/m^2 W/m2 Conditions
00:04 78.6 °F /  25.9 °C 31.6 °F /  -0.2 °C 29.70in /  1005.6hPa Calm   1.0mph /  1.6km/h 18% 0.00in /  0mm 0.00 W/m2
00:09 78.4 °F /  25.8 °C 31.5 °F /  -0.3 °C 29.70in /  1005.6hPa Calm     18% 0.00in /  0mm 0.00 W/m2
00:14 78.3 °F /  25.7 °C 32.5 °F /  0.3 °C 29.70in /  1005.6hPa NW 0.9mph /  1.4km/h 3.0mph /  4.8km/h 19% 0.00in /  0mm 0.00 W/m2
00:19 77.5 °F /  25.3 °C 33.3 °F /  0.7 °C 29.70in /  1005.6hPa NNW 0.9mph /  1.4km/h 4.0mph /  6.4km/h 20% 0.00in /  0mm 0.00 W/m2
00:24 77.2 °F /  25.1 °C 33.1 °F /  0.6 °C 29.70in /  1005.6hPa NNW 0.9mph /  1.4km/h 5.0mph /  8km/h 20% 0.00in /  0mm 0.00 W/m2
00:29 76.6 °F /  24.8 °C 32.5 °F /  0.3 °C 29.70in /  1005.6hPa North 2.9mph /  4.7km/h 4.0mph /  6.4km/h 20% 0.00in /  0mm 0.00 W/m2
00:34 76.5 °F /  24.7 °C 32.4 °F /  0.2 °C 29.70in /  1005.6hPa Calm   2.0mph /  3.2km/h 20% 0.00in /  0mm 0.00 W/m2
00:39 76.3 °F /  24.6 °C 33.4 °F /  0.8 °C 29.70in /  1005.6hPa Calm     21% 0.00in /  0mm 0.00 W/m2
00:44 75.7 °F /  24.3 °C 33.1 °F /  0.6 °C 29.70in /  1005.6hPa Calm     21% 0.00in /  0mm 0.00 W/m2
00:49 75.6 °F /  24.2 °C 34.0 °F /  1.1 °C 29.70in /  1005.6hPa Calm   2.0mph /  3.2km/h 22% 0.00in /  0mm 0.00 W/m2
00:54 75.0 °F /  23.9 °C 33.6 °F /  0.9 °C 29.70in /  1005.6hPa Calm     22% 0.00in /  0mm 0.00 W/m2
00:59 74.7 °F /  23.7 °C 33.3 °F /  0.7 °C 29.70in /  1005.6hPa Calm   1.0mph /  1.6km/h 22% 0.00in /  0mm 0.00 W/m2
01:04 74.3 °F /  23.5 °C 33.1 °F /  0.6 °C 29.69in /  1005.3hPa Calm   2.0mph /  3.2km/h 22% 0.00in /  0mm 0.00 W/m2
01:08 73.9 °F /  23.3 °C 32.7 °F /  0.4 °C 29.69in /  1005.3hPa North 2.0mph /  3.2km/h 3.0mph /  4.8km/h 22% 0.00in /  0mm 0.00 W/m2
01:14 73.9 °F /  23.3 °C 32.7 °F /  0.4 °C 29.69in /  1005.3hPa Calm   3.0mph /  4.8km/h 22% 0.00in /  0mm 0.00 W/m2
01:19 73.8 °F /  23.2 °C 32.5 °F /  0.3 °C 29.69in /  1005.3hPa Calm   6.0mph /  9.7km/h 22% 0.00in /  0mm 0.00 W/m2
01:24 73.8 °F /  23.2 °C 32.5 °F /  0.3 °C 29.69in /  1005.3hPa Calm   1.0mph /  1.6km/h 22% 0.00in /  0mm 0.00 W/m2
01:29 73.6 °F /  23.1 °C 33.4 °F /  0.8 °C 29.69in /  1005.3hPa Calm     23% 0.00in /  0mm 0.00 W/m2
01:34 73.2 °F /  22.9 °C 33.3 °F /  0.7 °C 29.69in /  1005.3hPa Calm   1.0mph /  1.6km/h 23% 0.00in /  0mm 0.00 W/m2
01:39 73.0 °F /  22.8 °C 33.1 °F /  0.6 °C 29.69in /  1005.3hPa NNE 0.9mph /  1.4km/h 2.0mph /  3.2km/h 23% 0.00in /  0mm 0.00 W/m2
01:44 72.7 °F /  22.6 °C 32.7 °F /  0.4 °C 29.69in /  1005.3hPa Calm   2.0mph /  3.2km/h 23% 0.00in /  0mm 0.00 W/m2
01:49 72.3 °F /  22.4 °C 33.4 °F /  0.8 °C 29.69in /  1005.3hPa Calm   1.0mph /  1.6km/h 24% 0.00in /  0mm 0.00 W/m2
01:54 72.0 °F /  22.2 °C 33.3 °F /  0.7 °C 29.69in /  1005.3hPa Calm     24% 0.00in /  0mm 0.00 W/m2
01:59 71.8 °F /  22.1 °C 33.1 °F /  0.6 °C 29.69in /  1005.3hPa Calm     24% 0.00in /  0mm 0.00 W/m2
02:04 71.2 °F /  21.8 °C 33.6 °F /  0.9 °C 29.68in /  1005hPa Calm   1.0mph /  1.6km/h 25% 0.00in /  0mm 0.00 W/m2
02:09 71.1 °F /  21.7 °C 33.4 °F /  0.8 °C 29.68in /  1005hPa Calm     25% 0.00in /  0mm 0.00 W/m2
02:14 70.5 °F /  21.4 °C 33.1 °F /  0.6 °C 29.68in /  1005hPa NNE 0.9mph /  1.4km/h 1.0mph /  1.6km/h 25% 0.00in /  0mm 0.00 W/m2
02:19 70.3 °F /  21.3 °C 32.9 °F /  0.5 °C 29.68in /  1005hPa NNE 2.0mph /  3.2km/h 2.0mph /  3.2km/h 25% 0.00in /  0mm 0.00 W/m2
02:24 70.2 °F /  21.2 °C 33.6 °F /  0.9 °C 29.68in /  1005hPa Calm   1.0mph /  1.6km/h 26% 0.00in /  0mm 0.00 W/m2
02:29 70.0 °F /  21.1 °C 33.4 °F /  0.8 °C 29.68in /  1005hPa Calm   3.0mph /  4.8km/h 26% 0.00in /  0mm 0.00 W/m2
02:34 69.6 °F /  20.9 °C 33.3 °F /  0.7 °C 29.68in /  1005hPa Calm   2.0mph /  3.2km/h 26% 0.00in /  0mm 0.00 W/m2
02:39 69.4 °F /  20.8 °C 33.1 °F /  0.6 °C 29.67in /  1004.6hPa Calm   1.0mph /  1.6km/h 26% 0.00in /  0mm 0.00 W/m2
02:43 69.3 °F /  20.7 °C 32.9 °F /  0.5 °C 29.67in /  1004.6hPa East 0.9mph /  1.4km/h 4.0mph /  6.4km/h 26% 0.00in /  0mm 0.00 W/m2
02:49 69.1 °F /  20.6 °C 33.6 °F /  0.9 °C 29.67in /  1004.6hPa Calm   1.0mph /  1.6km/h 27% 0.00in /  0mm 0.00 W/m2
02:54 68.7 °F /  20.4 °C 33.4 °F /  0.8 °C 29.67in /  1004.6hPa Calm     27% 0.00in /  0mm 0.00 W/m2
02:59 68.5 °F /  20.3 °C 34.2 °F /  1.2 °C 29.67in /  1004.6hPa Calm     28% 0.00in /  0mm 0.00 W/m2
03:04 68.5 °F /  20.3 °C 34.2 °F /  1.2 °C 29.67in /  1004.6hPa Calm     28% 0.00in /  0mm 0.00 W/m2
03:09 68.2 °F /  20.1 °C 33.8 °F /  1 °C 29.67in /  1004.6hPa Calm     28% 0.00in /  0mm 0.00 W/m2
03:14 68.0 °F /  20 °C 33.6 °F /  0.9 °C 29.67in /  1004.6hPa Calm     28% 0.00in /  0mm 0.00 W/m2
03:19 67.8 °F /  19.9 °C 34.3 °F /  1.3 °C 29.67in /  1004.6hPa Calm     29% 0.00in /  0mm 0.00 W/m2
03:24 67.6 °F /  19.8 °C 33.4 °F /  0.8 °C 29.67in /  1004.6hPa Calm     28% 0.00in /  0mm 0.00 W/m2
03:29 67.5 °F /  19.7 °C 34.2 °F /  1.2 °C 29.66in /  1004.3hPa Calm     29% 0.00in /  0mm 0.00 W/m2
03:34 67.3 °F /  19.6 °C 34.0 °F /  1.1 °C 29.66in /  1004.3hPa Calm     29% 0.00in /  0mm 0.00 W/m2
03:39 66.9 °F /  19.4 °C 33.6 °F /  0.9 °C 29.66in /  1004.3hPa Calm     29% 0.00in /  0mm 0.00 W/m2
03:44 66.7 °F /  19.3 °C 34.3 °F /  1.3 °C 29.66in /  1004.3hPa Calm     30% 0.00in /  0mm 0.00 W/m2
03:49 66.6 °F /  19.2 °C 34.2 °F /  1.2 °C 29.65in /  1003.9hPa Calm   1.0mph /  1.6km/h 30% 0.00in /  0mm 0.00 W/m2
03:54 66.4 °F /  19.1 °C 34.0 °F /  1.1 °C 29.65in /  1003.9hPa Calm   1.0mph /  1.6km/h 30% 0.00in /  0mm 0.00 W/m2
03:59 66.2 °F /  19 °C 33.8 °F /  1 °C 29.65in /  1003.9hPa Calm   1.0mph /  1.6km/h 30% 0.00in /  0mm 0.00 W/m2
04:04 66.0 °F /  18.9 °C 33.6 °F /  0.9 °C 29.65in /  1003.9hPa Calm   1.0mph /  1.6km/h 30% 0.00in /  0mm 0.00 W/m2
04:09 66.0 °F /  18.9 °C 33.6 °F /  0.9 °C 29.65in /  1003.9hPa Calm   1.0mph /  1.6km/h 30% 0.00in /  0mm 0.00 W/m2
04:14 65.8 °F /  18.8 °C 33.6 °F /  0.9 °C 29.65in /  1003.9hPa Calm   2.0mph /  3.2km/h 30% 0.00in /  0mm 0.00 W/m2
04:19 65.8 °F /  18.8 °C 33.6 °F /  0.9 °C 29.65in /  1003.9hPa Calm   1.0mph /  1.6km/h 30% 0.00in /  0mm 0.00 W/m2
04:24 65.7 °F /  18.7 °C 33.4 °F /  0.8 °C 29.65in /  1003.9hPa Calm   1.0mph /  1.6km/h 30% 0.00in /  0mm 0.00 W/m2
04:29 65.7 °F /  18.7 °C 34.2 °F /  1.2 °C 29.65in /  1003.9hPa Calm   1.0mph /  1.6km/h 31% 0.00in /  0mm 0.00 W/m2
04:34 65.5 °F /  18.6 °C 34.0 °F /  1.1 °C 29.65in /  1003.9hPa Calm   1.0mph /  1.6km/h 31% 0.00in /  0mm 0.00 W/m2
04:39 65.3 °F /  18.5 °C 33.8 °F /  1 °C 29.66in /  1004.3hPa Calm   1.0mph /  1.6km/h 31% 0.00in /  0mm 0.00 W/m2
04:44 65.1 °F /  18.4 °C 33.8 °F /  1 °C 29.66in /  1004.3hPa Calm   3.0mph /  4.8km/h 31% 0.00in /  0mm 0.00 W/m2
04:49 64.9 °F /  18.3 °C 33.6 °F /  0.9 °C 29.66in /  1004.3hPa ESE 0.9mph /  1.4km/h 2.0mph /  3.2km/h 31% 0.00in /  0mm 0.00 W/m2
04:54 64.9 °F /  18.3 °C 34.3 °F /  1.3 °C 29.66in /  1004.3hPa Calm   1.0mph /  1.6km/h 32% 0.00in /  0mm 0.00 W/m2
04:59 64.8 °F /  18.2 °C 34.2 °F /  1.2 °C 29.66in /  1004.3hPa ESE 0.9mph /  1.4km/h 1.0mph /  1.6km/h 32% 0.00in /  0mm 0.00 W/m2
05:04 64.6 °F /  18.1 °C 34.0 °F /  1.1 °C 29.67in /  1004.6hPa Calm   2.0mph /  3.2km/h 32% 0.00in /  0mm 0.00 W/m2
05:08 64.6 °F /  18.1 °C 34.0 °F /  1.1 °C 29.67in /  1004.6hPa Calm   2.0mph /  3.2km/h 32% 0.00in /  0mm 0.00 W/m2
05:14 64.4 °F /  18 °C 34.7 °F /  1.5 °C 29.67in /  1004.6hPa Calm   1.0mph /  1.6km/h 33% 0.00in /  0mm 0.00 W/m2
05:19 64.2 °F /  17.9 °C 34.5 °F /  1.4 °C 29.67in /  1004.6hPa Calm     33% 0.00in /  0mm 0.00 W/m2
05:24 64.0 °F /  17.8 °C 35.1 °F /  1.7 °C 29.67in /  1004.6hPa Calm     34% 0.00in /  0mm 0.00 W/m2
05:29 64.0 °F /  17.8 °C 34.3 °F /  1.3 °C 29.67in /  1004.6hPa Calm   1.0mph /  1.6km/h 33% 0.00in /  0mm 0.00 W/m2
05:34 63.9 °F /  17.7 °C 34.2 °F /  1.2 °C 29.67in /  1004.6hPa Calm   1.0mph /  1.6km/h 33% 0.00in /  0mm 0.00 W/m2
05:39 63.7 °F /  17.6 °C 34.7 °F /  1.5 °C 29.67in /  1004.6hPa Calm   1.0mph /  1.6km/h 34% 0.00in /  0mm 0.00 W/m2
05:44 63.5 °F /  17.5 °C 34.7 °F /  1.5 °C 29.67in /  1004.6hPa Calm   1.0mph /  1.6km/h 34% 0.00in /  0mm 0.00 W/m2
05:49 63.3 °F /  17.4 °C 35.2 °F /  1.8 °C 29.67in /  1004.6hPa Calm     35% 0.00in /  0mm 0.00 W/m2
05:54 63.1 °F /  17.3 °C 35.1 °F /  1.7 °C 29.67in /  1004.6hPa Calm     35% 0.00in /  0mm 0.00 W/m2
05:59 63.0 °F /  17.2 °C 35.6 °F /  2 °C 29.67in /  1004.6hPa Calm     36% 0.00in /  0mm 0.00 W/m2
06:04 62.6 °F /  17 °C 35.2 °F /  1.8 °C 29.67in /  1004.6hPa Calm     36% 0.00in /  0mm 0.00 W/m2
06:09 62.2 °F /  16.8 °C 35.6 °F /  2 °C 29.67in /  1004.6hPa Calm     37% 0.00in /  0mm 0.00 W/m2
06:14 62.1 °F /  16.7 °C 35.4 °F /  1.9 °C 29.67in /  1004.6hPa Calm     37% 0.00in /  0mm 0.00 W/m2
06:19 61.9 °F /  16.6 °C 35.2 °F /  1.8 °C 29.67in /  1004.6hPa Calm     37% 0.00in /  0mm 0.00 W/m2
06:24 61.7 °F /  16.5 °C 35.2 °F /  1.8 °C 29.68in /  1005hPa Calm     37% 0.00in /  0mm 0.00 W/m2
06:29 61.5 °F /  16.4 °C 35.6 °F /  2 °C 29.68in /  1005hPa Calm     38% 0.00in /  0mm 0.00 W/m2
06:34 61.3 °F /  16.3 °C 35.6 °F /  2 °C 29.68in /  1005hPa Calm     38% 0.00in /  0mm 0.00 W/m2
06:38 61.2 °F /  16.2 °C 36.0 °F /  2.2 °C 29.68in /  1005hPa Calm   1.0mph /  1.6km/h 39% 0.00in /  0mm 0.00 W/m2
06:44 61.2 °F /  16.2 °C 36.0 °F /  2.2 °C 29.68in /  1005hPa East 0.9mph /  1.4km/h 1.0mph /  1.6km/h 39% 0.00in /  0mm 0.00 W/m2
06:49 61.2 °F /  16.2 °C 35.4 °F /  1.9 °C 29.68in /  1005hPa East 0.9mph /  1.4km/h 2.0mph /  3.2km/h 38% 0.00in /  0mm 5.00 W/m2
06:54 61.2 °F /  16.2 °C 35.4 °F /  1.9 °C 29.69in /  1005.3hPa Calm   3.0mph /  4.8km/h 38% 0.00in /  0mm 7.00 W/m2
06:59 61.2 °F /  16.2 °C 35.4 °F /  1.9 °C 29.70in /  1005.6hPa South 0.9mph /  1.4km/h 4.0mph /  6.4km/h 38% 0.00in /  0mm 11.00 W/m2
07:04 61.5 °F /  16.4 °C 35.1 °F /  1.7 °C 29.70in /  1005.6hPa South 2.0mph /  3.2km/h 4.0mph /  6.4km/h 37% 0.00in /  0mm 12.00 W/m2
07:09 62.2 °F /  16.8 °C 34.9 °F /  1.6 °C 29.70in /  1005.6hPa SE 2.0mph /  3.2km/h 5.0mph /  8km/h 36% 0.00in /  0mm 14.00 W/m2
07:14 63.0 °F /  17.2 °C 34.9 °F /  1.6 °C 29.70in /  1005.6hPa SE 0.9mph /  1.4km/h 3.0mph /  4.8km/h 35% 0.00in /  0mm 14.00 W/m2
07:19 63.5 °F /  17.5 °C 34.7 °F /  1.5 °C 29.70in /  1005.6hPa SE 0.9mph /  1.4km/h 3.0mph /  4.8km/h 34% 0.00in /  0mm 16.00 W/m2
07:24 64.0 °F /  17.8 °C 35.1 °F /  1.7 °C 29.70in /  1005.6hPa SE 2.0mph /  3.2km/h 4.0mph /  6.4km/h 34% 0.00in /  0mm 18.00 W/m2
07:29 64.6 °F /  18.1 °C 34.9 °F /  1.6 °C 29.71in /  1006hPa Calm   1.0mph /  1.6km/h 33% 0.00in /  0mm 19.00 W/m2
07:34 65.1 °F /  18.4 °C 35.2 °F /  1.8 °C 29.71in /  1006hPa ENE 0.9mph /  1.4km/h 2.0mph /  3.2km/h 33% 0.00in /  0mm 19.00 W/m2
07:39 65.8 °F /  18.8 °C 34.3 °F /  1.3 °C 29.72in /  1006.3hPa North 2.0mph /  3.2km/h 6.0mph /  9.7km/h 31% 0.00in /  0mm 21.00 W/m2
07:44 66.6 °F /  19.2 °C 35.8 °F /  2.1 °C 29.72in /  1006.3hPa East 4.0mph /  6.4km/h 4.0mph /  6.4km/h 32% 0.00in /  0mm 23.00 W/m2
07:49 66.9 °F /  19.4 °C 36.1 °F /  2.3 °C 29.72in /  1006.3hPa ESE 2.9mph /  4.7km/h 5.0mph /  8km/h 32% 0.00in /  0mm 30.00 W/m2
07:54 67.5 °F /  19.7 °C 35.8 °F /  2.1 °C 29.73in /  1006.7hPa Calm   4.0mph /  6.4km/h 31% 0.00in /  0mm 25.00 W/m2
07:59 67.6 °F /  19.8 °C 36.0 °F /  2.2 °C 29.73in /  1006.7hPa North 6.0mph /  9.7km/h 6.0mph /  9.7km/h 31% 0.00in /  0mm 39.00 W/m2
08:04 68.4 °F /  20.2 °C 38.1 °F /  3.4 °C 29.73in /  1006.7hPa SE 0.9mph /  1.4km/h 1.0mph /  1.6km/h 33% 0.00in /  0mm 28.00 W/m2
08:09 69.3 °F /  20.7 °C 38.1 °F /  3.4 °C 29.73in /  1006.7hPa East 6.0mph /  9.7km/h 7.0mph /  11.3km/h 32% 0.00in /  0mm 30.00 W/m2
08:14 70.2 °F /  21.2 °C 39.7 °F /  4.3 °C 29.73in /  1006.7hPa East 4.0mph /  6.4km/h 7.0mph /  11.3km/h 33% 0.00in /  0mm 33.00 W/m2
08:19 71.2 °F /  21.8 °C 41.4 °F /  5.2 °C 29.73in /  1006.7hPa ESE 2.0mph /  3.2km/h 5.0mph /  8km/h 34% 0.00in /  0mm 32.00 W/m2
08:24 72.1 °F /  22.3 °C 43.7 °F /  6.5 °C 29.73in /  1006.7hPa NNE 4.9mph /  7.9km/h 12.0mph /  19.3km/h 36% 0.00in /  0mm 30.00 W/m2
08:29 73.0 °F /  22.8 °C 44.4 °F /  6.9 °C 29.72in /  1006.3hPa Calm   6.0mph /  9.7km/h 36% 0.00in /  0mm 32.00 W/m2
08:34 73.6 °F /  23.1 °C 45.0 °F /  7.2 °C 29.73in /  1006.7hPa NNE 0.9mph /  1.4km/h 3.0mph /  4.8km/h 36% 0.00in /  0mm 33.00 W/m2
08:39 73.9 °F /  23.3 °C 44.6 °F /  7 °C 29.73in /  1006.7hPa NNE 2.9mph /  4.7km/h 6.0mph /  9.7km/h 35% 0.00in /  0mm 33.00 W/m2
08:44 74.5 °F /  23.6 °C 45.0 °F /  7.2 °C 29.72in /  1006.3hPa East 0.9mph /  1.4km/h 7.0mph /  11.3km/h 35% 0.00in /  0mm 33.00 W/m2
08:49 74.8 °F /  23.8 °C 46.0 °F /  7.8 °C 29.72in /  1006.3hPa NNE 2.0mph /  3.2km/h 6.0mph /  9.7km/h 36% 0.00in /  0mm 39.00 W/m2
08:54 75.2 °F /  24 °C 47.1 °F /  8.4 °C 29.72in /  1006.3hPa NNE 0.9mph /  1.4km/h 4.0mph /  6.4km/h 37% 0.00in /  0mm 98.00 W/m2
08:59 75.6 °F /  24.2 °C 47.5 °F /  8.6 °C 29.72in /  1006.3hPa NNE 2.9mph /  4.7km/h 5.0mph /  8km/h 37% 0.00in /  0mm 513.00 W/m2
09:04 75.9 °F /  24.4 °C 47.8 °F /  8.8 °C 29.72in /  1006.3hPa Calm   6.0mph /  9.7km/h 37% 0.00in /  0mm 531.00 W/m2
09:09 76.6 °F /  24.8 °C 48.4 °F /  9.1 °C 29.72in /  1006.3hPa ESE 6.0mph /  9.7km/h 6.0mph /  9.7km/h 37% 0.00in /  0mm 548.00 W/m2
09:14 77.5 °F /  25.3 °C 48.6 °F /  9.2 °C 29.72in /  1006.3hPa Calm   1.0mph /  1.6km/h 36% 0.00in /  0mm 568.00 W/m2
09:18 78.4 °F /  25.8 °C 48.6 °F /  9.2 °C 29.72in /  1006.3hPa North 6.9mph /  11.1km/h 7.0mph /  11.3km/h 35% 0.00in /  0mm 580.00 W/m2
09:24 79.3 °F /  26.3 °C 48.6 °F /  9.2 °C 29.72in /  1006.3hPa North 2.9mph /  4.7km/h 7.0mph /  11.3km/h 34% 0.00in /  0mm 606.00 W/m2
09:29 79.9 °F /  26.6 °C 48.9 °F /  9.4 °C 29.72in /  1006.3hPa North 4.9mph /  7.9km/h 6.0mph /  9.7km/h 34% 0.00in /  0mm 624.00 W/m2
09:34 80.4 °F /  26.9 °C 48.7 °F /  9.3 °C 29.72in /  1006.3hPa NE 2.9mph /  4.7km/h 5.0mph /  8km/h 33% 0.00in /  0mm 640.00 W/m2
09:39 81.0 °F /  27.2 °C 50.0 °F /  10 °C 29.72in /  1006.3hPa North 2.0mph /  3.2km/h 4.0mph /  6.4km/h 34% 0.00in /  0mm 659.00 W/m2
09:43 81.3 °F /  27.4 °C 48.6 °F /  9.2 °C 29.72in /  1006.3hPa NNE 2.9mph /  4.7km/h 7.0mph /  11.3km/h 32% 0.00in /  0mm 670.00 W/m2
09:49 81.9 °F /  27.7 °C 49.1 °F /  9.5 °C 29.72in /  1006.3hPa Calm   3.0mph /  4.8km/h 32% 0.00in /  0mm 687.00 W/m2
09:54 82.4 °F /  28 °C 48.7 °F /  9.3 °C 29.72in /  1006.3hPa ENE 2.9mph /  4.7km/h 6.0mph /  9.7km/h 31% 0.00in /  0mm 707.00 W/m2
09:59 82.8 °F /  28.2 °C 49.1 °F /  9.5 °C 29.72in /  1006.3hPa Calm   2.0mph /  3.2km/h 31% 0.00in /  0mm 717.00 W/m2
10:04 82.8 °F /  28.2 °C 49.1 °F /  9.5 °C 29.72in /  1006.3hPa WSW 0.9mph /  1.4km/h 3.0mph /  4.8km/h 31% 0.00in /  0mm 738.00 W/m2
10:09 82.9 °F /  28.3 °C 47.5 °F /  8.6 °C 29.72in /  1006.3hPa NNW 4.9mph /  7.9km/h 8.0mph /  12.9km/h 29% 0.00in /  0mm 752.00 W/m2
10:14 83.5 °F /  28.6 °C 47.8 °F /  8.8 °C 29.72in /  1006.3hPa NNW 6.9mph /  11.1km/h 9.0mph /  14.5km/h 29% 0.00in /  0mm 765.00 W/m2
10:19 83.7 °F /  28.7 °C 47.1 °F /  8.4 °C 29.72in /  1006.3hPa NNW 2.0mph /  3.2km/h 7.0mph /  11.3km/h 28% 0.00in /  0mm 782.00 W/m2
10:24 84.0 °F /  28.9 °C 46.4 °F /  8 °C 29.72in /  1006.3hPa North 6.0mph /  9.7km/h 7.0mph /  11.3km/h 27% 0.00in /  0mm 800.00 W/m2
10:29 84.4 °F /  29.1 °C 46.8 °F /  8.2 °C 29.72in /  1006.3hPa Calm   3.0mph /  4.8km/h 27% 0.00in /  0mm 814.00 W/m2
10:34 84.9 °F /  29.4 °C 47.1 °F /  8.4 °C 29.72in /  1006.3hPa WSW 2.0mph /  3.2km/h 7.0mph /  11.3km/h 27% 0.00in /  0mm 823.00 W/m2
10:39 85.3 °F /  29.6 °C 47.5 °F /  8.6 °C 29.72in /  1006.3hPa NW 6.0mph /  9.7km/h 8.0mph /  12.9km/h 27% 0.00in /  0mm 833.00 W/m2
10:44 85.6 °F /  29.8 °C 45.9 °F /  7.7 °C 29.72in /  1006.3hPa NNW 0.9mph /  1.4km/h 2.0mph /  3.2km/h 25% 0.00in /  0mm 853.00 W/m2
10:49 85.8 °F /  29.9 °C 46.9 °F /  8.3 °C 29.72in /  1006.3hPa North 4.0mph /  6.4km/h 8.0mph /  12.9km/h 26% 0.00in /  0mm 870.00 W/m2
10:54 86.4 °F /  30.2 °C 46.4 °F /  8 °C 29.71in /  1006hPa West 0.9mph /  1.4km/h 7.0mph /  11.3km/h 25% 0.00in /  0mm 879.00 W/m2
10:59 86.5 °F /  30.3 °C 46.6 °F /  8.1 °C 29.71in /  1006hPa NNE 4.9mph /  7.9km/h 6.0mph /  9.7km/h 25% 0.00in /  0mm 891.00 W/m2
11:04 86.7 °F /  30.4 °C 45.7 °F /  7.6 °C 29.71in /  1006hPa Calm   4.0mph /  6.4km/h 24% 0.00in /  0mm 904.00 W/m2
11:09 87.1 °F /  30.6 °C 45.9 °F /  7.7 °C 29.71in /  1006hPa NW 2.0mph /  3.2km/h 5.0mph /  8km/h 24% 0.00in /  0mm 932.00 W/m2
11:14 87.4 °F /  30.8 °C 45.1 °F /  7.3 °C 29.71in /  1006hPa NE 8.1mph /  13km/h 9.0mph /  14.5km/h 23% 0.00in /  0mm 976.00 W/m2
11:19 87.4 °F /  30.8 °C 45.1 °F /  7.3 °C 29.71in /  1006hPa NNE 2.0mph /  3.2km/h 8.0mph /  12.9km/h 23% 0.00in /  0mm 967.00 W/m2
11:24 87.6 °F /  30.9 °C 45.3 °F /  7.4 °C 29.71in /  1006hPa SSE 0.9mph /  1.4km/h 6.0mph /  9.7km/h 23% 0.00in /  0mm 991.00 W/m2
11:29 88.0 °F /  31.1 °C 43.2 °F /  6.2 °C 29.71in /  1006hPa NNW 8.1mph /  13km/h 10.0mph /  16.1km/h 21% 0.00in /  0mm 1053.00 W/m2
11:34 88.0 °F /  31.1 °C 44.4 °F /  6.9 °C 29.71in /  1006hPa SSE 4.0mph /  6.4km/h 7.0mph /  11.3km/h 22% 0.00in /  0mm 192.00 W/m2
11:39 87.8 °F /  31 °C 43.0 °F /  6.1 °C 29.70in /  1005.6hPa NNE 2.0mph /  3.2km/h 6.0mph /  9.7km/h 21% 0.00in /  0mm 1095.00 W/m2
11:44 88.2 °F /  31.2 °C 43.3 °F /  6.3 °C 29.70in /  1005.6hPa NNW 6.9mph /  11.1km/h 10.0mph /  16.1km/h 21% 0.00in /  0mm 1062.00 W/m2
11:49 88.7 °F /  31.5 °C 43.7 °F /  6.5 °C 29.70in /  1005.6hPa North 2.9mph /  4.7km/h 4.0mph /  6.4km/h 21% 0.00in /  0mm 1085.00 W/m2
11:54 89.2 °F /  31.8 °C 44.2 °F /  6.8 °C 29.69in /  1005.3hPa Calm   10.0mph /  16.1km/h 21% 0.00in /  0mm 1097.00 W/m2
11:59 89.2 °F /  31.8 °C 44.2 °F /  6.8 °C 29.69in /  1005.3hPa NNE 2.0mph /  3.2km/h 10.0mph /  16.1km/h 21% 0.00in /  0mm 229.00 W/m2
12:04 88.3 °F /  31.3 °C 42.3 °F /  5.7 °C 29.69in /  1005.3hPa SSE 6.0mph /  9.7km/h 8.0mph /  12.9km/h 20% 0.00in /  0mm 306.00 W/m2
12:09 88.2 °F /  31.2 °C 43.3 °F /  6.3 °C 29.69in /  1005.3hPa North 2.9mph /  4.7km/h 3.0mph /  4.8km/h 21% 0.00in /  0mm 297.00 W/m2
12:14 87.6 °F /  30.9 °C 42.8 °F /  6 °C 29.69in /  1005.3hPa NE 6.9mph /  11.1km/h 8.0mph /  12.9km/h 21% 0.00in /  0mm 355.00 W/m2
12:19 87.6 °F /  30.9 °C 42.8 °F /  6 °C 29.68in /  1005hPa ESE 6.0mph /  9.7km/h 7.0mph /  11.3km/h 21% 0.00in /  0mm 1223.00 W/m2
12:24 88.2 °F /  31.2 °C 43.3 °F /  6.3 °C 29.68in /  1005hPa Calm   4.0mph /  6.4km/h 21% 0.00in /  0mm 1164.00 W/m2
12:29 88.9 °F /  31.6 °C 43.9 °F /  6.6 °C 29.67in /  1004.6hPa North 4.0mph /  6.4km/h 8.0mph /  12.9km/h 21% 0.00in /  0mm 1194.00 W/m2
12:34 89.2 °F /  31.8 °C 43.0 °F /  6.1 °C 29.67in /  1004.6hPa ENE 11.0mph /  17.7km/h 11.0mph /  17.7km/h 20% 0.00in /  0mm 241.00 W/m2
12:39 88.9 °F /  31.6 °C 45.1 °F /  7.3 °C 29.67in /  1004.6hPa NNW 4.9mph /  7.9km/h 6.0mph /  9.7km/h 22% 0.00in /  0mm 592.00 W/m2
12:44 88.7 °F /  31.5 °C 45.0 °F /  7.2 °C 29.67in /  1004.6hPa WNW 2.0mph /  3.2km/h 7.0mph /  11.3km/h 22% 0.00in /  0mm 285.00 W/m2
12:49 88.9 °F /  31.6 °C 43.9 °F /  6.6 °C 29.67in /  1004.6hPa WNW 8.9mph /  14.3km/h 11.0mph /  17.7km/h 21% 0.00in /  0mm 1290.00 W/m2
12:54 88.7 °F /  31.5 °C 43.7 °F /  6.5 °C 29.67in /  1004.6hPa NNW 4.0mph /  6.4km/h 8.0mph /  12.9km/h 21% 0.00in /  0mm 272.00 W/m2
12:59 88.3 °F /  31.3 °C 42.3 °F /  5.7 °C 29.67in /  1004.6hPa NW 2.9mph /  4.7km/h 7.0mph /  11.3km/h 20% 0.00in /  0mm 1248.00 W/m2
13:04 88.5 °F /  31.4 °C 42.3 °F /  5.7 °C 29.67in /  1004.6hPa North 6.0mph /  9.7km/h 13.0mph /  20.9km/h 20% 0.00in /  0mm 1241.00 W/m2
13:09 89.1 °F /  31.7 °C 41.4 °F /  5.2 °C 29.66in /  1004.3hPa WNW 2.9mph /  4.7km/h 9.0mph /  14.5km/h 19% 0.00in /  0mm 1155.00 W/m2
13:14 90.0 °F /  32.2 °C 42.3 °F /  5.7 °C 29.66in /  1004.3hPa NNE 2.9mph /  4.7km/h 7.0mph /  11.3km/h 19% 0.00in /  0mm 1157.00 W/m2
13:19 90.3 °F /  32.4 °C 41.0 °F /  5 °C 29.67in /  1004.6hPa East 6.9mph /  11.1km/h 13.0mph /  20.9km/h 18% 0.00in /  0mm 1141.00 W/m2
13:24 90.7 °F /  32.6 °C 41.4 °F /  5.2 °C 29.66in /  1004.3hPa NNW 6.0mph /  9.7km/h 7.0mph /  11.3km/h 18% 0.00in /  0mm 1143.00 W/m2
13:29 91.2 °F /  32.9 °C 41.7 °F /  5.4 °C 29.66in /  1004.3hPa NW 8.1mph /  13km/h 8.0mph /  12.9km/h 18% 0.00in /  0mm 1134.00 W/m2
13:34 91.9 °F /  33.3 °C 40.8 °F /  4.9 °C 29.66in /  1004.3hPa Calm   7.0mph /  11.3km/h 17% 0.00in /  0mm 1136.00 W/m2
13:39 92.1 °F /  33.4 °C 41.0 °F /  5 °C 29.65in /  1003.9hPa NNW 2.9mph /  4.7km/h 4.0mph /  6.4km/h 17% 0.00in /  0mm 1169.00 W/m2
13:44 92.5 °F /  33.6 °C 41.4 °F /  5.2 °C 29.65in /  1003.9hPa North 0.9mph /  1.4km/h 5.0mph /  8km/h 17% 0.00in /  0mm 1215.00 W/m2
13:49 91.8 °F /  33.2 °C 40.8 °F /  4.9 °C 29.65in /  1003.9hPa North 2.9mph /  4.7km/h 11.0mph /  17.7km/h 17% 0.00in /  0mm 241.00 W/m2
13:54 91.2 °F /  32.9 °C 40.3 °F /  4.6 °C 29.65in /  1003.9hPa SW 0.9mph /  1.4km/h 2.0mph /  3.2km/h 17% 0.00in /  0mm 283.00 W/m2
13:59 91.2 °F /  32.9 °C 41.7 °F /  5.4 °C 29.64in /  1003.6hPa SE 4.0mph /  6.4km/h 5.0mph /  8km/h 18% 0.00in /  0mm 1109.00 W/m2
14:04 92.1 °F /  33.4 °C 39.6 °F /  4.2 °C 29.64in /  1003.6hPa NNW 8.1mph /  13km/h 10.0mph /  16.1km/h 16% 0.00in /  0mm 1174.00 W/m2
14:09 92.3 °F /  33.5 °C 39.6 °F /  4.2 °C 29.64in /  1003.6hPa SE 0.9mph /  1.4km/h 6.0mph /  9.7km/h 16% 0.00in /  0mm 1100.00 W/m2
14:14 92.5 °F /  33.6 °C 39.7 °F /  4.3 °C 29.64in /  1003.6hPa NE 8.9mph /  14.3km/h 11.0mph /  17.7km/h 16% 0.00in /  0mm 1123.00 W/m2
14:19 92.7 °F /  33.7 °C 39.9 °F /  4.4 °C 29.64in /  1003.6hPa Calm   7.0mph /  11.3km/h 16% 0.00in /  0mm 1134.00 W/m2
14:24 92.8 °F /  33.8 °C 38.5 °F /  3.6 °C 29.63in /  1003.3hPa North 2.9mph /  4.7km/h 10.0mph /  16.1km/h 15% 0.00in /  0mm 603.00 W/m2
14:29 93.0 °F /  33.9 °C 38.5 °F /  3.6 °C 29.63in /  1003.3hPa North 0.9mph /  1.4km/h 5.0mph /  8km/h 15% 0.00in /  0mm 1165.00 W/m2
14:34 93.6 °F /  34.2 °C 40.6 °F /  4.8 °C 29.63in /  1003.3hPa NE 6.0mph /  9.7km/h 8.0mph /  12.9km/h 16% 0.00in /  0mm 1183.00 W/m2
14:39 93.6 °F /  34.2 °C 40.6 °F /  4.8 °C 29.63in /  1003.3hPa NNW 0.9mph /  1.4km/h 4.0mph /  6.4km/h 16% 0.00in /  0mm 271.00 W/m2
14:44 93.7 °F /  34.3 °C 40.8 °F /  4.9 °C 29.63in /  1003.3hPa Calm   8.0mph /  12.9km/h 16% 0.00in /  0mm 1109.00 W/m2
14:49 94.3 °F /  34.6 °C 39.6 °F /  4.2 °C 29.63in /  1003.3hPa Calm   3.0mph /  4.8km/h 15% 0.00in /  0mm 490.00 W/m2
14:54 93.9 °F /  34.4 °C 39.2 °F /  4 °C 29.63in /  1003.3hPa NE 0.9mph /  1.4km/h 7.0mph /  11.3km/h 15% 0.00in /  0mm 1090.00 W/m2
14:59 93.7 °F /  34.3 °C 40.8 °F /  4.9 °C 29.63in /  1003.3hPa West 4.9mph /  7.9km/h 6.0mph /  9.7km/h 16% 0.00in /  0mm 260.00 W/m2
15:04 93.0 °F /  33.9 °C 40.3 °F /  4.6 °C 29.63in /  1003.3hPa NNE 2.9mph /  4.7km/h 7.0mph /  11.3km/h 16% 0.00in /  0mm 223.00 W/m2
15:09 92.1 °F /  33.4 °C 39.6 °F /  4.2 °C 29.62in /  1002.9hPa North 4.9mph /  7.9km/h 7.0mph /  11.3km/h 16% 0.00in /  0mm 1034.00 W/m2
15:14 92.5 °F /  33.6 °C 39.7 °F /  4.3 °C 29.62in /  1002.9hPa East 2.9mph /  4.7km/h 8.0mph /  12.9km/h 16% 0.00in /  0mm 986.00 W/m2
15:19 93.0 °F /  33.9 °C 40.3 °F /  4.6 °C 29.62in /  1002.9hPa Calm   7.0mph /  11.3km/h 16% 0.00in /  0mm 979.00 W/m2
15:24 93.6 °F /  34.2 °C 39.0 °F /  3.9 °C 29.62in /  1002.9hPa WNW 2.9mph /  4.7km/h 6.0mph /  9.7km/h 15% 0.00in /  0mm 969.00 W/m2
15:29 94.1 °F /  34.5 °C 39.4 °F /  4.1 °C 29.61in /  1002.6hPa Calm   10.0mph /  16.1km/h 15% 0.00in /  0mm 984.00 W/m2
15:34 93.9 °F /  34.4 °C 39.2 °F /  4 °C 29.62in /  1002.9hPa NNE 2.9mph /  4.7km/h 5.0mph /  8km/h 15% 0.00in /  0mm 970.00 W/m2
15:39 93.6 °F /  34.2 °C 37.2 °F /  2.9 °C 29.62in /  1002.9hPa NNW 4.9mph /  7.9km/h 8.0mph /  12.9km/h 14% 0.00in /  0mm 970.00 W/m2
15:43 93.4 °F /  34.1 °C 37.0 °F /  2.8 °C 29.61in /  1002.6hPa Calm   5.0mph /  8km/h 14% 0.00in /  0mm 986.00 W/m2
15:49 93.7 °F /  34.3 °C 39.2 °F /  4 °C 29.61in /  1002.6hPa South 0.9mph /  1.4km/h 3.0mph /  4.8km/h 15% 0.00in /  0mm 958.00 W/m2
15:54 94.3 °F /  34.6 °C 39.6 °F /  4.2 °C 29.61in /  1002.6hPa North 2.9mph /  4.7km/h 6.0mph /  9.7km/h 15% 0.00in /  0mm 916.00 W/m2
15:59 94.6 °F /  34.8 °C 39.7 °F /  4.3 °C 29.60in /  1002.3hPa NNE 0.9mph /  1.4km/h 8.0mph /  12.9km/h 15% 0.00in /  0mm 881.00 W/m2
16:04 94.8 °F /  34.9 °C 39.9 °F /  4.4 °C 29.60in /  1002.3hPa North 2.9mph /  4.7km/h 5.0mph /  8km/h 15% 0.00in /  0mm 821.00 W/m2
16:08 95.2 °F /  35.1 °C 40.3 °F /  4.6 °C 29.60in /  1002.3hPa NNW 8.1mph /  13km/h 8.0mph /  12.9km/h 15% 0.00in /  0mm 830.00 W/m2
16:14 95.4 °F /  35.2 °C 40.5 °F /  4.7 °C 29.60in /  1002.3hPa NW 6.0mph /  9.7km/h 7.0mph /  11.3km/h 15% 0.00in /  0mm 809.00 W/m2
16:18 95.5 °F /  35.3 °C 40.5 °F /  4.7 °C 29.60in /  1002.3hPa NW 2.0mph /  3.2km/h 3.0mph /  4.8km/h 15% 0.00in /  0mm 826.00 W/m2
16:23 95.5 °F /  35.3 °C 40.5 °F /  4.7 °C 29.60in /  1002.3hPa NE 2.9mph /  4.7km/h 8.0mph /  12.9km/h 15% 0.00in /  0mm 585.00 W/m2
16:29 95.2 °F /  35.1 °C 40.3 °F /  4.6 °C 29.60in /  1002.3hPa NE 2.0mph /  3.2km/h 9.0mph /  14.5km/h 15% 0.00in /  0mm 197.00 W/m2
16:34 94.1 °F /  34.5 °C 39.4 °F /  4.1 °C 29.60in /  1002.3hPa NNE 2.9mph /  4.7km/h 3.0mph /  4.8km/h 15% 0.00in /  0mm 241.00 W/m2
16:39 93.0 °F /  33.9 °C 40.3 °F /  4.6 °C 29.60in /  1002.3hPa North 4.0mph /  6.4km/h 4.0mph /  6.4km/h 16% 0.00in /  0mm 253.00 W/m2
16:44 93.0 °F /  33.9 °C 40.3 °F /  4.6 °C 29.59in /  1001.9hPa WNW 0.9mph /  1.4km/h 5.0mph /  8km/h 16% 0.00in /  0mm 686.00 W/m2
16:49 93.6 °F /  34.2 °C 40.6 °F /  4.8 °C 29.59in /  1001.9hPa NNE 2.9mph /  4.7km/h 8.0mph /  12.9km/h 16% 0.00in /  0mm 146.00 W/m2
16:54 93.0 °F /  33.9 °C 40.3 °F /  4.6 °C 29.59in /  1001.9hPa Calm   1.0mph /  1.6km/h 16% 0.00in /  0mm 185.00 W/m2
16:59 92.5 °F /  33.6 °C 39.7 °F /  4.3 °C 29.59in /  1001.9hPa NW 4.0mph /  6.4km/h 7.0mph /  11.3km/h 16% 0.00in /  0mm 139.00 W/m2
17:04 91.8 °F /  33.2 °C 39.2 °F /  4 °C 29.59in /  1001.9hPa North 4.0mph /  6.4km/h 7.0mph /  11.3km/h 16% 0.00in /  0mm 142.00 W/m2
17:09 91.0 °F /  32.8 °C 38.7 °F /  3.7 °C 29.59in /  1001.9hPa NW 2.9mph /  4.7km/h 6.0mph /  9.7km/h 16% 0.00in /  0mm 132.00 W/m2
17:14 90.3 °F /  32.4 °C 38.1 °F /  3.4 °C 29.59in /  1001.9hPa NNW 2.0mph /  3.2km/h 6.0mph /  9.7km/h 16% 0.00in /  0mm 132.00 W/m2
17:19 90.3 °F /  32.4 °C 39.6 °F /  4.2 °C 29.59in /  1001.9hPa Calm   3.0mph /  4.8km/h 17% 0.00in /  0mm 522.00 W/m2
17:24 90.9 °F /  32.7 °C 41.5 °F /  5.3 °C 29.59in /  1001.9hPa North 0.9mph /  1.4km/h 7.0mph /  11.3km/h 18% 0.00in /  0mm 499.00 W/m2
17:28 91.2 °F /  32.9 °C 40.3 °F /  4.6 °C 29.59in /  1001.9hPa NNE 4.0mph /  6.4km/h 9.0mph /  14.5km/h 17% 0.00in /  0mm 445.00 W/m2
17:34 91.6 °F /  33.1 °C 40.6 °F /  4.8 °C 29.59in /  1001.9hPa NNW 2.9mph /  4.7km/h 9.0mph /  14.5km/h 17% 0.00in /  0mm 397.00 W/m2
17:39 91.6 °F /  33.1 °C 39.0 °F /  3.9 °C 29.59in /  1001.9hPa NNW 2.9mph /  4.7km/h 8.0mph /  12.9km/h 16% 0.00in /  0mm 383.00 W/m2
17:44 91.8 °F /  33.2 °C 39.2 °F /  4 °C 29.59in /  1001.9hPa NW 2.0mph /  3.2km/h 2.0mph /  3.2km/h 16% 0.00in /  0mm 359.00 W/m2
17:49 91.9 °F /  33.3 °C 39.4 °F /  4.1 °C 29.59in /  1001.9hPa North 4.0mph /  6.4km/h 5.0mph /  8km/h 16% 0.00in /  0mm 77.00 W/m2
17:50 91.8 °F /  33.2 °C 39.2 °F /  4 °C 29.59in /  1001.9hPa North 2.9mph /  4.7km/h 6.0mph /  9.7km/h 16% 0.00in /  0mm 72.00 W/m2
18:19 88.3 °F /  31.3 °C 39.4 °F /  4.1 °C 29.59in /  1001.9hPa NNE 4.0mph /  6.4km/h 6.0mph /  9.7km/h 18% 0.00in /  0mm 42.00 W/m2
18:24 88.0 °F /  31.1 °C 39.2 °F /  4 °C 29.59in /  1001.9hPa NW 2.9mph /  4.7km/h 5.0mph /  8km/h 18% 0.00in /  0mm 35.00 W/m2
18:29 87.6 °F /  30.9 °C 40.3 °F /  4.6 °C 29.60in /  1002.3hPa Calm   2.0mph /  3.2km/h 19% 0.00in /  0mm 25.00 W/m2
18:34 87.6 °F /  30.9 °C 40.3 °F /  4.6 °C 29.60in /  1002.3hPa Calm   1.0mph /  1.6km/h 19% 0.00in /  0mm 21.00 W/m2
18:39 87.4 °F /  30.8 °C 41.4 °F /  5.2 °C 29.60in /  1002.3hPa South 0.9mph /  1.4km/h 5.0mph /  8km/h 20% 0.00in /  0mm 19.00 W/m2
18:44 86.7 °F /  30.4 °C 42.1 °F /  5.6 °C 29.60in /  1002.3hPa West 4.9mph /  7.9km/h 10.0mph /  16.1km/h 21% 0.00in /  0mm 18.00 W/m2
18:49 85.5 °F /  29.7 °C 41.0 °F /  5 °C 29.60in /  1002.3hPa SSW 4.0mph /  6.4km/h 11.0mph /  17.7km/h 21% 0.00in /  0mm 18.00 W/m2
18:54 84.7 °F /  29.3 °C 41.7 °F /  5.4 °C 29.61in /  1002.6hPa West 6.9mph /  11.1km/h 13.0mph /  20.9km/h 22% 0.00in /  0mm 18.00 W/m2
18:59 84.4 °F /  29.1 °C 41.4 °F /  5.2 °C 29.61in /  1002.6hPa WSW 0.9mph /  1.4km/h 6.0mph /  9.7km/h 22% 0.00in /  0mm 14.00 W/m2
19:03 84.0 °F /  28.9 °C 41.0 °F /  5 °C 29.61in /  1002.6hPa South 2.9mph /  4.7km/h 12.0mph /  19.3km/h 22% 0.00in /  0mm 11.00 W/m2
19:09 83.7 °F /  28.7 °C 40.8 °F /  4.9 °C 29.61in /  1002.6hPa SW 2.9mph /  4.7km/h 7.0mph /  11.3km/h 22% 0.00in /  0mm 7.00 W/m2
19:14 83.5 °F /  28.6 °C 40.6 °F /  4.8 °C 29.61in /  1002.6hPa West 2.9mph /  4.7km/h 7.0mph /  11.3km/h 22% 0.00in /  0mm 5.00 W/m2
19:19 83.3 °F /  28.5 °C 40.5 °F /  4.7 °C 29.61in /  1002.6hPa West 2.0mph /  3.2km/h 5.0mph /  8km/h 22% 0.00in /  0mm 0.00 W/m2
19:24 83.1 °F /  28.4 °C 40.3 °F /  4.6 °C 29.61in /  1002.6hPa WNW 0.9mph /  1.4km/h 1.0mph /  1.6km/h 22% 0.00in /  0mm 0.00 W/m2
19:29 83.1 °F /  28.4 °C 41.5 °F /  5.3 °C 29.62in /  1002.9hPa North 0.9mph /  1.4km/h 2.0mph /  3.2km/h 23% 0.00in /  0mm 0.00 W/m2
19:34 83.1 °F /  28.4 °C 40.3 °F /  4.6 °C 29.62in /  1002.9hPa Calm     22% 0.00in /  0mm 0.00 W/m2
19:39 82.9 °F /  28.3 °C 41.4 °F /  5.2 °C 29.62in /  1002.9hPa Calm     23% 0.00in /  0mm 0.00 W/m2
19:44 82.8 °F /  28.2 °C 41.2 °F /  5.1 °C 29.62in /  1002.9hPa Calm   1.0mph /  1.6km/h 23% 0.00in /  0mm 0.00 W/m2
19:49 82.8 °F /  28.2 °C 41.2 °F /  5.1 °C 29.62in /  1002.9hPa Calm     23% 0.00in /  0mm 0.00 W/m2
19:54 82.6 °F /  28.1 °C 41.0 °F /  5 °C 29.62in /  1002.9hPa Calm   1.0mph /  1.6km/h 23% 0.00in /  0mm 0.00 W/m2
19:59 82.6 °F /  28.1 °C 41.0 °F /  5 °C 29.62in /  1002.9hPa Calm     23% 0.00in /  0mm 0.00 W/m2
20:04 82.2 °F /  27.9 °C 40.8 °F /  4.9 °C 29.63in /  1003.3hPa Calm   1.0mph /  1.6km/h 23% 0.00in /  0mm 0.00 W/m2
20:09 82.2 °F /  27.9 °C 40.8 °F /  4.9 °C 29.63in /  1003.3hPa Calm   1.0mph /  1.6km/h 23% 0.00in /  0mm 0.00 W/m2
20:14 82.0 °F /  27.8 °C 40.6 °F /  4.8 °C 29.63in /  1003.3hPa Calm   1.0mph /  1.6km/h 23% 0.00in /  0mm 0.00 W/m2
20:19 81.9 °F /  27.7 °C 41.5 °F /  5.3 °C 29.63in /  1003.3hPa Calm   1.0mph /  1.6km/h 24% 0.00in /  0mm 0.00 W/m2
20:24 81.9 °F /  27.7 °C 40.5 °F /  4.7 °C 29.63in /  1003.3hPa NE 0.9mph /  1.4km/h 3.0mph /  4.8km/h 23% 0.00in /  0mm 0.00 W/m2
20:29 81.7 °F /  27.6 °C 41.4 °F /  5.2 °C 29.63in /  1003.3hPa Calm   2.0mph /  3.2km/h 24% 0.00in /  0mm 0.00 W/m2
20:34 81.7 °F /  27.6 °C 40.3 °F /  4.6 °C 29.63in /  1003.3hPa Calm   1.0mph /  1.6km/h 23% 0.00in /  0mm 0.00 W/m2
20:38 81.7 °F /  27.6 °C 41.4 °F /  5.2 °C 29.63in /  1003.3hPa Calm   1.0mph /  1.6km/h 24% 0.00in /  0mm 0.00 W/m2
20:44 81.7 °F /  27.6 °C 41.4 °F /  5.2 °C 29.63in /  1003.3hPa Calm     24% 0.00in /  0mm 0.00 W/m2
20:49 81.7 °F /  27.6 °C 41.4 °F /  5.2 °C 29.63in /  1003.3hPa Calm     24% 0.00in /  0mm 0.00 W/m2
20:54 81.5 °F /  27.5 °C 41.2 °F /  5.1 °C 29.63in /  1003.3hPa Calm     24% 0.00in /  0mm 0.00 W/m2
20:59 81.3 °F /  27.4 °C 41.0 °F /  5 °C 29.63in /  1003.3hPa Calm   1.0mph /  1.6km/h 24% 0.00in /  0mm 0.00 W/m2
21:04 81.1 °F /  27.3 °C 41.9 °F /  5.5 °C 29.64in /  1003.6hPa Calm   1.0mph /  1.6km/h 25% 0.00in /  0mm 0.00 W/m2
21:09 81.0 °F /  27.2 °C 41.9 °F /  5.5 °C 29.64in /  1003.6hPa Calm   3.0mph /  4.8km/h 25% 0.00in /  0mm 0.00 W/m2
21:14 80.8 °F /  27.1 °C 41.7 °F /  5.4 °C 29.64in /  1003.6hPa Calm   2.0mph /  3.2km/h 25% 0.00in /  0mm 0.00 W/m2
21:18 80.8 °F /  27.1 °C 41.7 °F /  5.4 °C 29.65in /  1003.9hPa Calm   2.0mph /  3.2km/h 25% 0.00in /  0mm 0.00 W/m2
21:24 80.6 °F /  27 °C 41.5 °F /  5.3 °C 29.65in /  1003.9hPa Calm   1.0mph /  1.6km/h 25% 0.00in /  0mm 0.00 W/m2
21:29 80.6 °F /  27 °C 41.5 °F /  5.3 °C 29.65in /  1003.9hPa Calm     25% 0.00in /  0mm 0.00 W/m2
21:34 80.4 °F /  26.9 °C 41.4 °F /  5.2 °C 29.65in /  1003.9hPa Calm     25% 0.00in /  0mm 0.00 W/m2
21:39 80.4 °F /  26.9 °C 41.4 °F /  5.2 °C 29.65in /  1003.9hPa Calm     25% 0.00in /  0mm 0.00 W/m2
21:44 80.2 °F /  26.8 °C 41.2 °F /  5.1 °C 29.66in /  1004.3hPa ESE 0.9mph /  1.4km/h 5.0mph /  8km/h 25% 0.00in /  0mm 0.00 W/m2
21:49 80.1 °F /  26.7 °C 41.0 °F /  5 °C 29.66in /  1004.3hPa Calm   3.0mph /  4.8km/h 25% 0.00in /  0mm 0.00 W/m2
21:54 80.1 °F /  26.7 °C 42.1 °F /  5.6 °C 29.66in /  1004.3hPa ENE 0.9mph /  1.4km/h 2.0mph /  3.2km/h 26% 0.00in /  0mm 0.00 W/m2
21:59 80.1 °F /  26.7 °C 41.0 °F /  5 °C 29.67in /  1004.6hPa Calm   1.0mph /  1.6km/h 25% 0.00in /  0mm 0.00 W/m2
22:04 79.9 °F /  26.6 °C 41.0 °F /  5 °C 29.67in /  1004.6hPa Calm   1.0mph /  1.6km/h 25% 0.00in /  0mm 0.00 W/m2
22:09 79.9 °F /  26.6 °C 41.9 °F /  5.5 °C 29.67in /  1004.6hPa Calm   1.0mph /  1.6km/h 26% 0.00in /  0mm 0.00 W/m2
22:14 80.1 °F /  26.7 °C 42.1 °F /  5.6 °C 29.67in /  1004.6hPa Calm   1.0mph /  1.6km/h 26% 0.00in /  0mm 0.00 W/m2
22:19 80.1 °F /  26.7 °C 42.1 °F /  5.6 °C 29.67in /  1004.6hPa Calm     26% 0.00in /  0mm 0.00 W/m2
22:24 80.1 °F /  26.7 °C 42.1 °F /  5.6 °C 29.68in /  1005hPa ESE 0.9mph /  1.4km/h 2.0mph /  3.2km/h 26% 0.00in /  0mm 0.00 W/m2
22:29 80.1 °F /  26.7 °C 44.1 °F /  6.7 °C 29.69in /  1005.3hPa Calm   2.0mph /  3.2km/h 28% 0.00in /  0mm 0.00 W/m2
22:34 80.1 °F /  26.7 °C 52.2 °F /  11.2 °C 29.69in /  1005.3hPa Calm   6.0mph /  9.7km/h 38% 0.00in /  0mm 0.00 W/m2
22:39 79.5 °F /  26.4 °C 52.3 °F /  11.3 °C 29.69in /  1005.3hPa SSW 0.9mph /  1.4km/h 2.0mph /  3.2km/h 39% 0.00in /  0mm 0.00 W/m2
22:44 79.2 °F /  26.2 °C 51.4 °F /  10.8 °C 29.69in /  1005.3hPa Calm   2.0mph /  3.2km/h 38% 0.00in /  0mm 0.00 W/m2
22:49 78.6 °F /  25.9 °C 47.8 °F /  8.8 °C 29.69in /  1005.3hPa SW 4.0mph /  6.4km/h 5.0mph /  8km/h 34% 0.00in /  0mm 0.00 W/m2
22:54 78.4 °F /  25.8 °C 46.2 °F /  7.9 °C 29.69in /  1005.3hPa SSW 2.9mph /  4.7km/h 6.0mph /  9.7km/h 32% 0.00in /  0mm 0.00 W/m2
22:59 78.4 °F /  25.8 °C 44.4 °F /  6.9 °C 29.69in /  1005.3hPa SSW 6.0mph /  9.7km/h 7.0mph /  11.3km/h 30% 0.00in /  0mm 0.00 W/m2
23:04 78.4 °F /  25.8 °C 43.5 °F /  6.4 °C 29.69in /  1005.3hPa South 4.0mph /  6.4km/h 9.0mph /  14.5km/h 29% 0.00in /  0mm 0.00 W/m2
23:09 78.6 °F /  25.9 °C 43.7 °F /  6.5 °C 29.69in /  1005.3hPa SW 4.0mph /  6.4km/h 8.0mph /  12.9km/h 29% 0.00in /  0mm 0.00 W/m2
23:14 79.0 °F /  26.1 °C 44.1 °F /  6.7 °C 29.69in /  1005.3hPa SSW 0.9mph /  1.4km/h 7.0mph /  11.3km/h 29% 0.00in /  0mm 0.00 W/m2
23:19 79.0 °F /  26.1 °C 45.0 °F /  7.2 °C 29.68in /  1005hPa SSW 2.9mph /  4.7km/h 3.0mph /  4.8km/h 30% 0.00in /  0mm 0.00 W/m2
23:24 79.0 °F /  26.1 °C 44.1 °F /  6.7 °C 29.68in /  1005hPa SSW 4.9mph /  7.9km/h 5.0mph /  8km/h 29% 0.00in /  0mm 0.00 W/m2
23:28 79.0 °F /  26.1 °C 44.1 °F /  6.7 °C 29.68in /  1005hPa SW 2.0mph /  3.2km/h 2.0mph /  3.2km/h 29% 0.00in /  0mm 0.00 W/m2
23:34 79.2 °F /  26.2 °C 44.2 °F /  6.8 °C 29.68in /  1005hPa Calm   4.0mph /  6.4km/h 29% 0.00in /  0mm 0.00 W/m2
23:39 79.2 °F /  26.2 °C 44.2 °F /  6.8 °C 29.68in /  1005hPa Calm     29% 0.00in /  0mm 0.00 W/m2
23:44 79.2 °F /  26.2 °C 45.1 °F /  7.3 °C 29.68in /  1005hPa Calm   3.0mph /  4.8km/h 30% 0.00in /  0mm 0.00 W/m2
Olympia, Windhoek, Namibia
Compliments of Weather Underground - 3.25 mb